Celle Army, Germany

6:48 PM CEST on October 21, 2014 (GMT +0200)
Celle Army | Change Station
CLOSE
Current Station
Airport
Location: Celle,
Elevation: 171 ft
Nearby Weather Stations

Elev 171 ft 52.60 °N, 10.03 °E | Updated 28 minutes ago

Light Rain
Light Rain
54 °F
Feels Like 54 °F
N
8
Wind Variable Wind from SSW

Today
High -- | Low -- °F
--% Chance of Precip.
Yesterday
High -- | Low -- °F
Precip. -- in
7:55 AM 6:12 PM
Waning Crescent, 5% visible
Pressure 29.42 in
Visibility 6.2 miles
Clouds Few 1500 ft
Scattered Clouds 2200 ft
Overcast 6400 ft
Dew Point 50 °F
Humidity 88%
Rainfall 0.00 in
Snow Depth Not available.
UV 0 out of 12
Pollen Not available.
Air Quality Not available.
Flu Activity Not available.
METAR ETHC 211620Z 21007KT 9999 -RA FEW015 SCT022 OVC064 12/10 Q0996 BLU

More Conditions Fewer Conditions

Pressure 29.42 in
Visibility 6.2 miles
Clouds Few 1500 ft
Scattered Clouds 2200 ft
Overcast 6400 ft
Dew Point 50 °F
Humidity 88%
Rainfall 0.00 in
Snow Depth Not available.
UV 0 out of 12
Pollen Not available.
Air Quality Not available.
Flu Activity Not available.
METAR ETHC 211620Z 21007KT 9999 -RA FEW015 SCT022 OVC064 12/10 Q0996 BLU

More Conditions Fewer Conditions

10-Day Weather Forecast

Almanac

Astronomy

Oct. 21, 2014 Rise Set
Actual Time 7:55 AM CEST 6:12 PM CEST
Civil Twilight 7:20 AM CEST 6:47 PM CEST
Nautical Twilight 6:41 AM CEST 7:26 PM CEST
Astronomical Twilight 6:01 AM CEST 8:06 PM CEST
Moon 5:05 AM CEST 5:12 PM CEST
Length of Visible Light 11h 26m
Length of Day
10h 16m
Tomorrow will be 3m 55s shorter.
Waning Crescent, 5% of the Moon is Illuminated
Today
Waning Crescent
Oct 23
New
Oct 30
First Quarter
Nov 6
Full
Nov 14
Last Quarter

Today's Extremes

Country Highs Country Lows

Community

WunderPhotos

Upload Photos

1,763,712 photos uploaded!

Nearby

Snow Depth

Not available.

Earthquake Activity

City Distance Mag. Time & Date
No recent earthquake activity has been reported nearby.
Minimum magnitude displayed is 2.5.

Coastal Water Temperatures

Place Temperature
No Stations Reporting

Nearby Weather Stations